createdAt,value
2022-11-12T00:01:37.720Z,100.00
2022-11-12T00:04:22.555Z,100.00
2022-11-12T00:07:07.366Z,100.00
2022-11-12T00:09:52.263Z,100.00
2022-11-12T00:12:37.288Z,100.00
2022-11-12T00:15:22.426Z,100.00
2022-11-12T00:18:07.933Z,100.00
2022-11-12T00:20:52.750Z,100.00
2022-11-12T00:23:37.687Z,100.00
2022-11-12T00:26:22.625Z,100.00
2022-11-12T00:29:07.623Z,100.00
2022-11-12T00:31:52.482Z,100.00
2022-11-12T00:34:37.404Z,100.00
2022-11-12T00:37:23.172Z,100.00
2022-11-12T00:40:09.004Z,100.00
2022-11-12T00:42:54.102Z,100.00
2022-11-12T00:45:38.913Z,100.00
2022-11-12T00:48:23.962Z,100.00
2022-11-12T00:51:09.487Z,100.00
2022-11-12T00:53:54.653Z,100.00
2022-11-12T00:56:39.648Z,100.00
2022-11-12T00:59:24.539Z,100.00
2022-11-12T01:02:09.431Z,100.00
2022-11-12T01:04:54.285Z,100.00
2022-11-12T01:07:39.279Z,100.00
2022-11-12T01:10:24.428Z,100.00
2022-11-12T01:13:09.472Z,100.00
2022-11-12T01:15:54.500Z,100.00
2022-11-12T01:18:39.965Z,100.00
2022-11-12T01:21:28.039Z,100.00
2022-11-12T01:24:13.322Z,100.00
2022-11-12T01:26:58.164Z,100.00
2022-11-12T01:29:43.344Z,100.00
2022-11-12T01:32:28.330Z,100.00
2022-11-12T01:35:13.536Z,100.00
2022-11-12T01:37:58.322Z,100.00
2022-11-12T01:40:43.202Z,100.00
2022-11-12T01:43:28.040Z,100.00
2022-11-12T01:46:28.810Z,100.00
2022-11-12T01:49:39.310Z,100.00
2022-11-12T01:52:30.751Z,100.00
2022-11-12T01:55:26.288Z,100.00
2022-11-12T01:58:14.584Z,100.00
2022-11-12T02:01:02.132Z,100.00
2022-11-12T02:03:47.177Z,100.00
2022-11-12T02:06:34.153Z,100.00
2022-11-12T02:09:19.548Z,100.00
2022-11-12T02:12:05.531Z,100.00
2022-11-12T02:14:50.483Z,100.00
2022-11-12T02:17:35.530Z,100.00
2022-11-12T02:20:20.812Z,100.00
2022-11-12T02:23:07.705Z,100.00
2022-11-12T02:25:52.509Z,100.00
2022-11-12T02:28:37.739Z,100.00
2022-11-12T02:31:22.962Z,100.00
2022-11-12T02:34:07.891Z,100.00
2022-11-12T02:36:52.951Z,100.00
2022-11-12T02:39:37.991Z,100.00
2022-11-12T02:42:22.984Z,100.00
2022-11-12T02:45:07.991Z,100.00
2022-11-12T02:47:53.094Z,100.00
2022-11-12T02:50:37.859Z,100.00
2022-11-12T02:53:22.859Z,100.00
2022-11-12T02:56:07.800Z,100.00
2022-11-12T02:58:52.662Z,100.00
2022-11-12T03:01:37.785Z,100.00
2022-11-12T03:04:22.689Z,100.00
2022-11-12T03:07:07.640Z,100.00
2022-11-12T03:09:52.423Z,100.00
2022-11-12T03:12:37.278Z,100.00
2022-11-12T03:15:22.163Z,100.00
2022-11-12T03:18:07.665Z,100.00
2022-11-12T03:20:53.084Z,100.00
2022-11-12T03:23:38.287Z,100.00
2022-11-12T03:26:23.176Z,100.00
2022-11-12T03:29:08.025Z,100.00
2022-11-12T03:31:52.973Z,100.00
2022-11-12T03:34:37.766Z,100.00
2022-11-12T03:37:22.783Z,100.00
2022-11-12T03:40:08.110Z,100.00
2022-11-12T03:42:53.801Z,100.00
2022-11-12T03:45:38.945Z,100.00
2022-11-12T03:48:24.459Z,100.00
2022-11-12T03:51:12.139Z,100.00
2022-11-12T03:53:57.084Z,100.00
2022-11-12T03:56:42.003Z,100.00
2022-11-12T03:59:26.874Z,100.00
2022-11-12T04:02:14.324Z,100.00
2022-11-12T04:05:18.177Z,100.00
2022-11-12T04:08:26.443Z,100.00
2022-11-12T04:11:15.478Z,100.00
2022-11-12T04:14:00.709Z,100.00
2022-11-12T04:17:04.487Z,100.00
2022-11-12T04:20:08.160Z,100.00
2022-11-12T04:22:53.369Z,100.00
2022-11-12T04:25:58.438Z,100.00
2022-11-12T04:29:04.079Z,100.00
2022-11-12T04:31:49.409Z,100.00
2022-11-12T04:34:34.743Z,100.00
2022-11-12T04:37:23.477Z,100.00
2022-11-12T04:40:29.558Z,100.00
2022-11-12T04:43:35.161Z,100.00
2022-11-12T04:46:20.378Z,100.00
2022-11-12T04:49:05.407Z,100.00
2022-11-12T04:52:05.675Z,100.00
2022-11-12T04:54:51.313Z,100.00
2022-11-12T04:57:37.613Z,100.00
2022-11-12T05:00:23.084Z,100.00
2022-11-12T05:03:08.289Z,100.00
2022-11-12T05:05:53.511Z,100.00
2022-11-12T05:08:38.305Z,100.00
2022-11-12T05:11:23.359Z,100.00
2022-11-12T05:14:08.563Z,100.00
2022-11-12T05:16:53.424Z,100.00
2022-11-12T05:19:38.535Z,100.00
2022-11-12T05:22:42.656Z,100.00
2022-11-12T05:25:28.185Z,100.00
2022-11-12T05:28:13.280Z,100.00
2022-11-12T05:30:58.265Z,100.00
2022-11-12T05:33:43.427Z,100.00
2022-11-12T05:36:28.261Z,100.00
2022-11-12T05:39:13.180Z,100.00
2022-11-12T05:42:12.339Z,100.00
2022-11-12T05:44:58.142Z,100.00
2022-11-12T05:47:42.931Z,100.00
2022-11-12T05:50:34.956Z,100.00
2022-11-12T05:53:24.950Z,100.00
2022-11-12T05:56:11.237Z,100.00
2022-11-12T05:58:56.464Z,100.00
2022-11-12T06:01:44.339Z,100.00
2022-11-12T06:04:29.320Z,100.00
2022-11-12T06:07:14.266Z,100.00
2022-11-12T06:09:59.083Z,100.00
2022-11-12T06:12:44.013Z,100.00
2022-11-12T06:15:29.163Z,100.00
2022-11-12T06:18:14.557Z,100.00
2022-11-12T06:21:24.806Z,100.00
2022-11-12T06:24:10.116Z,100.00
2022-11-12T06:26:55.162Z,100.00
2022-11-12T06:29:40.414Z,100.00
2022-11-12T06:32:25.531Z,100.00
2022-11-12T06:35:10.431Z,100.00
2022-11-12T06:37:55.343Z,100.00
2022-11-12T06:40:40.303Z,100.00
2022-11-12T06:43:27.505Z,100.00
2022-11-12T06:46:17.374Z,100.00
2022-11-12T06:49:02.343Z,100.00
2022-11-12T06:51:51.120Z,100.00
2022-11-12T06:54:36.324Z,100.00
2022-11-12T06:57:21.332Z,100.00
2022-11-12T07:00:07.079Z,100.00
2022-11-12T07:02:52.092Z,100.00
2022-11-12T07:05:40.458Z,100.00
2022-11-12T07:08:25.737Z,100.00
2022-11-12T07:11:11.421Z,100.00
2022-11-12T07:13:56.743Z,100.00
2022-11-12T07:16:41.950Z,100.00
2022-11-12T07:19:27.032Z,100.00
2022-11-12T07:22:12.079Z,100.00
2022-11-12T07:24:57.111Z,100.00
2022-11-12T07:27:42.014Z,100.00
2022-11-12T07:30:26.847Z,100.00
2022-11-12T07:33:11.762Z,100.00
2022-11-12T07:36:01.303Z,100.00
2022-11-12T07:38:47.171Z,100.00
2022-11-12T07:41:32.399Z,100.00
2022-11-12T07:44:17.412Z,100.00
2022-11-12T07:47:02.340Z,100.00
2022-11-12T07:49:47.214Z,100.00
2022-11-12T07:52:33.088Z,100.00
2022-11-12T07:55:17.867Z,100.00
2022-11-12T07:58:02.672Z,100.00
2022-11-12T08:00:47.563Z,100.00
2022-11-12T08:03:32.432Z,100.00
2022-11-12T08:06:17.586Z,100.00
2022-11-12T08:09:04.785Z,100.00
2022-11-12T08:11:49.981Z,100.00
2022-11-12T08:14:34.750Z,100.00
2022-11-12T08:17:19.681Z,100.00
2022-11-12T08:20:04.822Z,100.00
2022-11-12T08:22:49.872Z,100.00
2022-11-12T08:25:36.166Z,100.00
2022-11-12T08:28:21.040Z,100.00
2022-11-12T08:31:14.838Z,100.00
2022-11-12T08:34:11.804Z,100.00
2022-11-12T08:36:56.954Z,100.00
2022-11-12T08:39:42.571Z,100.00
2022-11-12T08:42:27.847Z,100.00
2022-11-12T08:45:13.075Z,100.00
2022-11-12T08:48:16.495Z,100.00
2022-11-12T08:51:03.378Z,100.00
2022-11-12T08:53:48.210Z,100.00
2022-11-12T08:56:33.942Z,100.00
2022-11-12T08:59:19.116Z,100.00
2022-11-12T09:02:04.042Z,100.00
2022-11-12T09:04:48.893Z,100.00
2022-11-12T09:07:49.295Z,100.00
2022-11-12T09:10:35.690Z,100.00
2022-11-12T09:13:21.058Z,100.00
2022-11-12T09:16:07.454Z,100.00
2022-11-12T09:18:52.519Z,100.00
2022-11-12T09:21:37.389Z,100.00
2022-11-12T09:24:22.297Z,100.00
2022-11-12T09:27:07.264Z,98.99
2022-11-12T09:29:52.068Z,99.15
2022-11-12T09:32:37.266Z,99.26
2022-11-12T09:35:22.584Z,100.00
2022-11-12T09:38:07.416Z,98.36
2022-11-12T09:40:52.306Z,97.44
2022-11-12T09:43:48.456Z,97.69
2022-11-12T09:46:55.058Z,97.47
2022-11-12T09:50:10.916Z,96.86
2022-11-12T09:53:04.471Z,96.85
2022-11-12T09:55:50.209Z,94.96
2022-11-12T09:58:36.892Z,94.62
2022-11-12T10:01:38.832Z,94.88
2022-11-12T10:04:51.973Z,94.04
2022-11-12T10:07:48.978Z,93.30
2022-11-12T10:10:46.784Z,92.51
2022-11-12T10:13:45.991Z,91.70
2022-11-12T10:17:25.153Z,91.36
2022-11-12T10:20:29.060Z,89.58
2022-11-12T10:23:19.066Z,88.93
2022-11-12T10:26:13.032Z,87.46
2022-11-12T10:29:13.898Z,87.37
2022-11-12T10:32:01.720Z,87.33
2022-11-12T10:34:46.953Z,86.81
2022-11-12T10:37:46.948Z,85.73
2022-11-12T10:40:34.430Z,86.55
2022-11-12T10:43:20.967Z,84.45
2022-11-12T10:46:36.376Z,85.57
2022-11-12T10:49:24.316Z,83.94
2022-11-12T10:52:24.019Z,83.03
2022-11-12T10:55:24.831Z,82.27
2022-11-12T10:58:09.970Z,81.38
2022-11-12T11:01:12.895Z,81.61
2022-11-12T11:03:58.330Z,81.41
2022-11-12T11:06:43.880Z,90.03
2022-11-12T11:09:28.732Z,91.05
2022-11-12T11:12:27.499Z,90.16
2022-11-12T11:15:15.667Z,89.28
2022-11-12T11:18:00.919Z,91.33
2022-11-12T11:20:53.149Z,92.55
2022-11-12T11:23:55.956Z,92.71
2022-11-12T11:26:59.819Z,93.36
2022-11-12T11:30:03.171Z,93.05
2022-11-12T11:33:25.927Z,91.92
2022-11-12T11:36:21.964Z,91.90
2022-11-12T11:39:33.292Z,92.80
2022-11-12T11:42:47.712Z,91.54
2022-11-12T11:45:44.964Z,92.63
2022-11-12T11:48:54.808Z,93.87
2022-11-12T11:51:55.683Z,93.42
2022-11-12T11:54:53.051Z,92.15
2022-11-12T11:57:48.787Z,91.61
2022-11-12T12:01:06.337Z,93.10
2022-11-12T12:04:18.752Z,91.66
2022-11-12T12:07:12.533Z,91.52
2022-11-12T12:10:09.336Z,91.54
2022-11-12T12:13:08.074Z,91.19
2022-11-12T12:16:08.432Z,91.55
2022-11-12T12:19:02.649Z,91.71
2022-11-12T12:21:50.788Z,91.52
2022-11-12T12:25:15.555Z,92.63
2022-11-12T12:28:17.651Z,93.53
2022-11-12T12:31:07.041Z,93.00
2022-11-12T12:34:02.722Z,90.83
2022-11-12T12:36:53.759Z,91.31
2022-11-12T12:39:58.445Z,91.38
2022-11-12T12:42:50.987Z,91.96
2022-11-12T12:45:44.777Z,91.31
2022-11-12T12:48:34.196Z,90.04
2022-11-12T12:51:19.669Z,92.12
2022-11-12T12:54:04.618Z,91.88
2022-11-12T12:56:49.684Z,91.25
2022-11-12T12:59:34.961Z,90.72
2022-11-12T13:02:23.199Z,92.53
2022-11-12T13:05:24.709Z,90.79
2022-11-12T13:08:13.988Z,91.96
2022-11-12T13:10:59.554Z,92.82
2022-11-12T13:13:44.653Z,90.99
2022-11-12T13:16:51.384Z,91.68
2022-11-12T13:19:43.945Z,92.72
2022-11-12T13:22:38.132Z,91.87
2022-11-12T13:25:29.353Z,92.20
2022-11-12T13:28:14.580Z,91.27
2022-11-12T13:31:01.795Z,90.98
2022-11-12T13:33:47.666Z,90.21
2022-11-12T13:36:32.893Z,90.10
2022-11-12T13:39:20.130Z,90.79
2022-11-12T13:42:36.505Z,91.89
2022-11-12T13:45:25.218Z,91.42
2022-11-12T13:48:16.913Z,91.24
2022-11-12T13:51:06.713Z,91.43
2022-11-12T13:53:51.552Z,91.62
2022-11-12T13:56:37.554Z,92.03
2022-11-12T13:59:25.372Z,91.81
2022-11-12T14:02:23.112Z,92.59
2022-11-12T14:05:18.653Z,92.67
2022-11-12T14:08:29.641Z,91.65
2022-11-12T14:11:38.359Z,91.33
2022-11-12T14:14:57.292Z,90.71
2022-11-12T14:17:57.240Z,90.22
2022-11-12T14:20:42.839Z,90.10
2022-11-12T14:23:28.655Z,90.10
2022-11-12T14:26:33.479Z,90.61
2022-11-12T14:29:19.434Z,91.16
2022-11-12T14:32:08.732Z,90.93
2022-11-12T14:34:53.749Z,91.19
2022-11-12T14:37:43.361Z,95.07
2022-11-12T14:40:31.870Z,94.62
2022-11-12T14:43:37.626Z,96.27
2022-11-12T14:46:33.762Z,96.06
2022-11-12T14:49:43.967Z,96.44
2022-11-12T14:52:36.986Z,96.51
2022-11-12T14:55:28.751Z,97.04
2022-11-12T14:58:15.229Z,97.63
2022-11-12T15:01:44.919Z,98.38
2022-11-12T15:04:25.721Z,98.99
2022-11-12T15:07:27.602Z,99.93
2022-11-12T15:10:42.725Z,100.00
2022-11-12T15:13:28.541Z,100.00
2022-11-12T15:16:30.119Z,100.00
2022-11-12T15:19:26.414Z,100.00
2022-11-12T15:22:20.795Z,100.00
2022-11-12T15:25:22.727Z,100.00
2022-11-12T15:28:14.129Z,100.00
2022-11-12T15:31:08.348Z,100.00
2022-11-12T15:33:53.574Z,100.00
2022-11-12T15:36:41.349Z,100.00
2022-11-12T15:39:28.676Z,100.00
2022-11-12T15:42:26.625Z,100.00
2022-11-12T15:45:19.845Z,100.00
2022-11-12T15:48:05.111Z,100.00
2022-11-12T15:50:50.435Z,100.00
2022-11-12T15:53:35.497Z,100.00
2022-11-12T15:56:23.426Z,100.00
2022-11-12T15:59:14.671Z,100.00
2022-11-12T16:01:59.636Z,100.00
2022-11-12T16:04:44.504Z,100.00
2022-11-12T16:07:29.483Z,100.00
2022-11-12T16:10:16.880Z,100.00
2022-11-12T16:13:03.468Z,100.00
2022-11-12T16:15:51.462Z,100.00
2022-11-12T16:18:36.331Z,100.00
2022-11-12T16:21:21.275Z,100.00
2022-11-12T16:24:06.710Z,100.00
2022-11-12T16:26:52.227Z,100.00
2022-11-12T16:29:37.027Z,100.00
2022-11-12T16:32:22.031Z,100.00
2022-11-12T16:35:07.445Z,100.00
2022-11-12T16:37:55.575Z,100.00
2022-11-12T16:40:41.281Z,100.00
2022-11-12T16:43:26.625Z,100.00
2022-11-12T16:46:24.852Z,100.00
2022-11-12T16:49:13.600Z,100.00
2022-11-12T16:51:59.336Z,100.00
2022-11-12T16:54:44.527Z,100.00
2022-11-12T16:57:29.510Z,100.00
2022-11-12T17:00:17.481Z,100.00
2022-11-12T17:03:02.581Z,100.00
2022-11-12T17:05:52.608Z,100.00
2022-11-12T17:08:37.752Z,100.00
2022-11-12T17:11:23.211Z,100.00
2022-11-12T17:14:08.702Z,100.00
2022-11-12T17:16:53.650Z,100.00
2022-11-12T17:19:38.933Z,100.00
2022-11-12T17:22:24.010Z,100.00
2022-11-12T17:25:09.325Z,100.00
2022-11-12T17:27:54.417Z,100.00
2022-11-12T17:30:39.743Z,100.00
2022-11-12T17:33:25.080Z,100.00
2022-11-12T17:36:13.372Z,100.00
2022-11-12T17:39:00.116Z,100.00
2022-11-12T17:41:45.732Z,100.00
2022-11-12T17:44:31.008Z,100.00
2022-11-12T17:47:16.062Z,100.00
2022-11-12T17:50:00.948Z,100.00
2022-11-12T17:52:45.944Z,100.00
2022-11-12T17:55:30.691Z,100.00
2022-11-12T17:58:15.793Z,100.00
2022-11-12T18:01:06.730Z,100.00
2022-11-12T18:03:53.439Z,100.00
2022-11-12T18:06:38.540Z,100.00
2022-11-12T18:09:23.919Z,100.00
2022-11-12T18:12:09.267Z,100.00
2022-11-12T18:14:54.365Z,100.00
2022-11-12T18:17:39.341Z,100.00
2022-11-12T18:20:24.903Z,100.00
2022-11-12T18:23:09.902Z,100.00
2022-11-12T18:25:55.212Z,100.00
2022-11-12T18:28:43.332Z,100.00
2022-11-12T18:31:28.623Z,100.00
2022-11-12T18:34:15.018Z,100.00
2022-11-12T18:36:59.988Z,100.00
2022-11-12T18:39:44.945Z,100.00
2022-11-12T18:42:29.968Z,100.00
2022-11-12T18:45:14.918Z,100.00
2022-11-12T18:47:59.906Z,100.00
2022-11-12T18:50:44.710Z,100.00
2022-11-12T18:53:31.467Z,100.00
2022-11-12T18:56:18.777Z,100.00
2022-11-12T18:59:04.737Z,100.00
2022-11-12T19:01:50.057Z,100.00
2022-11-12T19:04:35.136Z,100.00
2022-11-12T19:07:20.423Z,100.00
2022-11-12T19:10:14.785Z,100.00
2022-11-12T19:13:03.758Z,100.00
2022-11-12T19:15:48.704Z,100.00
2022-11-12T19:18:34.472Z,100.00
2022-11-12T19:21:22.200Z,100.00
2022-11-12T19:24:07.597Z,100.00
2022-11-12T19:26:52.782Z,100.00
2022-11-12T19:29:37.974Z,100.00
2022-11-12T19:32:22.748Z,100.00
2022-11-12T19:35:08.139Z,100.00
2022-11-12T19:37:52.907Z,100.00
2022-11-12T19:40:38.027Z,100.00
2022-11-12T19:43:24.489Z,100.00
2022-11-12T19:46:10.701Z,100.00
2022-11-12T19:48:55.904Z,100.00
2022-11-12T19:51:40.738Z,100.00
2022-11-12T19:54:26.260Z,100.00
2022-11-12T19:57:11.126Z,100.00
2022-11-12T19:59:56.043Z,100.00
2022-11-12T20:02:40.987Z,100.00
2022-11-12T20:05:26.004Z,100.00
2022-11-12T20:08:11.218Z,100.00
2022-11-12T20:10:56.368Z,100.00
2022-11-12T20:13:41.518Z,100.00
2022-11-12T20:16:26.441Z,100.00
2022-11-12T20:19:11.430Z,100.00
2022-11-12T20:21:56.601Z,100.00
2022-11-12T20:24:41.501Z,100.00
2022-11-12T20:27:26.518Z,100.00
2022-11-12T20:30:12.045Z,100.00
2022-11-12T20:32:57.022Z,100.00
2022-11-12T20:35:42.196Z,100.00
2022-11-12T20:38:28.030Z,100.00
2022-11-12T20:41:16.384Z,100.00
2022-11-12T20:44:02.503Z,100.00
2022-11-12T20:46:47.379Z,100.00
2022-11-12T20:49:32.418Z,100.00
2022-11-12T20:52:17.453Z,100.00
2022-11-12T20:55:02.580Z,100.00
2022-11-12T20:57:47.733Z,100.00
2022-11-12T21:00:32.785Z,100.00
2022-11-12T21:03:17.885Z,100.00
2022-11-12T21:06:04.657Z,100.00
2022-11-12T21:08:50.431Z,100.00
2022-11-12T21:11:35.587Z,100.00
2022-11-12T21:14:20.539Z,100.00
2022-11-12T21:17:05.350Z,100.00
2022-11-12T21:19:50.371Z,100.00
2022-11-12T21:22:35.204Z,100.00
2022-11-12T21:25:20.109Z,100.00
2022-11-12T21:28:06.070Z,100.00
2022-11-12T21:30:52.326Z,100.00
2022-11-12T21:33:37.684Z,100.00
2022-11-12T21:36:22.939Z,100.00
2022-11-12T21:39:10.000Z,100.00
2022-11-12T21:41:54.963Z,100.00
2022-11-12T21:44:39.818Z,100.00
2022-11-12T21:47:25.217Z,100.00
2022-11-12T21:50:10.200Z,100.00
2022-11-12T21:52:58.388Z,100.00
2022-11-12T21:55:43.426Z,100.00
2022-11-12T21:58:29.622Z,100.00
2022-11-12T22:01:20.093Z,100.00
2022-11-12T22:04:07.482Z,100.00
2022-11-12T22:06:52.722Z,100.00
2022-11-12T22:09:37.903Z,100.00
2022-11-12T22:12:23.080Z,100.00
2022-11-12T22:15:08.315Z,100.00
2022-11-12T22:17:53.329Z,100.00
2022-11-12T22:20:38.591Z,100.00
2022-11-12T22:23:23.598Z,100.00
2022-11-12T22:26:14.277Z,100.00
2022-11-12T22:29:00.338Z,100.00
2022-11-12T22:31:45.319Z,100.00
2022-11-12T22:34:30.248Z,100.00
2022-11-12T22:37:15.090Z,100.00
2022-11-12T22:39:59.939Z,100.00
2022-11-12T22:42:44.676Z,100.00
2022-11-12T22:45:29.818Z,100.00
2022-11-12T22:48:14.966Z,100.00
2022-11-12T22:51:06.230Z,100.00
2022-11-12T22:54:00.380Z,100.00
2022-11-12T22:56:45.524Z,100.00
2022-11-12T22:59:30.696Z,100.00
2022-11-12T23:02:15.487Z,100.00
2022-11-12T23:05:00.405Z,100.00
2022-11-12T23:07:45.272Z,100.00
2022-11-12T23:10:31.840Z,100.00
2022-11-12T23:13:16.911Z,100.00
2022-11-12T23:16:05.745Z,100.00
2022-11-12T23:18:52.751Z,100.00
2022-11-12T23:21:37.941Z,100.00
2022-11-12T23:24:22.762Z,100.00
2022-11-12T23:27:07.663Z,100.00
2022-11-12T23:29:52.541Z,100.00
2022-11-12T23:32:37.492Z,100.00
2022-11-12T23:35:22.446Z,100.00
2022-11-12T23:38:07.416Z,100.00
2022-11-12T23:40:56.050Z,100.00
2022-11-12T23:43:41.269Z,100.00
2022-11-12T23:46:26.806Z,100.00
2022-11-12T23:49:12.050Z,100.00
2022-11-12T23:51:56.911Z,100.00
2022-11-12T23:54:41.832Z,100.00
2022-11-12T23:57:26.779Z,100.00
